Time;durP1;ratioP1;P1;durP2;ratioP2;P2;SDS_P1;SDS_P2;PMS_P1;PMS_P2;Temp;Humidity;BMP_temperature;BMP_pressure;BME280_temperature;BME280_humidity;BME280_pressure;Samples;Min_cycle;Max_cycle;Signal;HPM_P1;HPM_P2
2023/10/26 00:00:12;;;;;;;1.10;0.90;;;14.00;97.00;;;14.13;61.49;96950.84;4961790;28;115419;-79
2023/10/26 00:02:38;;;;;;;1.13;0.80;;;14.00;97.00;;;14.16;61.52;96960.41;4970601;28;114707;-79
2023/10/26 00:05:08;;;;;;;1.40;0.90;;;14.00;97.00;;;14.18;61.68;96954.44;4970883;28;123554;-79
2023/10/26 00:07:35;;;;;;;2.40;0.90;;;14.00;97.10;;;14.19;61.58;96956.06;4970617;28;123734;-81
2023/10/26 00:10:04;;;;;;;2.30;1.00;;;14.00;97.10;;;14.16;61.73;96954.84;4968858;28;114679;-82
2023/10/26 00:12:34;;;;;;;1.03;0.80;;;14.00;97.10;;;14.13;61.59;96956.41;4964545;28;113961;-85
2023/10/26 00:15:00;;;;;;;2.20;0.80;;;13.90;97.10;;;14.12;61.81;96963.13;4965626;28;124628;-80
2023/10/26 00:17:30;;;;;;;3.03;0.97;;;14.00;97.10;;;14.10;61.63;96957.16;4997560;28;123602;-80
2023/10/26 00:19:57;;;;;;;1.37;1.00;;;14.30;97.30;;;14.07;61.99;96957.91;4968815;28;114308;-79
2023/10/26 00:22:24;;;;;;;1.63;1.00;;;13.90;97.20;;;14.06;62.04;96955.53;4964807;28;114550;-79
2023/10/26 00:24:53;;;;;;;2.70;1.00;;;14.00;97.30;;;14.05;62.07;96949.19;4982794;28;123118;-78
2023/10/26 00:27:20;;;;;;;1.27;1.00;;;14.20;97.50;;;14.03;62.33;96945.97;4967171;28;123788;-78
2023/10/26 00:29:47;;;;;;;8.03;1.00;;;13.80;97.30;;;14.03;62.44;96948.75;4954940;28;114407;-78
2023/10/26 00:32:13;;;;;;;1.70;0.90;;;13.80;97.40;;;14.03;62.35;96954.31;4970651;28;113695;-79
2023/10/26 00:34:43;;;;;;;2.20;0.97;;;13.80;97.50;;;14.04;62.57;96944.00;4961227;28;123915;-79
2023/10/26 00:37:12;;;;;;;1.20;0.93;;;13.80;97.50;;;14.04;62.44;96946.78;4967561;28;123301;-83
2023/10/26 00:39:41;;;;;;;1.33;0.80;;;13.90;97.60;;;14.04;62.69;96941.22;4972133;28;114533;-79
2023/10/26 00:42:11;;;;;;;1.87;0.90;;;13.70;97.50;;;14.06;62.59;96947.19;4988129;28;113164;-79
2023/10/26 00:44:39;;;;;;;2.03;0.93;;;13.90;97.60;;;14.08;62.59;96948.41;4971056;28;123064;-79
2023/10/26 00:47:06;;;;;;;1.10;0.90;;;13.90;97.60;;;14.11;62.63;96944.06;4968487;28;124306;-78
2023/10/26 00:49:33;;;;;;;1.63;1.00;;;13.90;97.60;;;14.13;62.61;96945.28;4967374;28;115267;-79
2023/10/26 00:52:02;;;;;;;1.50;1.00;;;13.90;97.70;;;14.17;62.59;96936.97;4968187;28;115039;-79
2023/10/26 00:54:28;;;;;;;1.50;1.00;;;13.90;97.70;;;14.21;62.50;96937.00;4963725;28;124284;-79
2023/10/26 00:56:56;;;;;;;1.80;1.00;;;13.90;97.70;;;14.24;62.77;96944.56;4960753;28;123777;-80
2023/10/26 00:59:27;;;;;;;2.03;0.90;;;14.00;97.80;;;14.23;62.53;96934.66;4968412;28;114218;-78
2023/10/26 01:01:58;;;;;;;1.93;0.87;;;14.00;97.70;;;14.22;62.41;96941.41;4971457;28;114455;-81
2023/10/26 01:04:25;;;;;;;2.63;1.10;;;14.00;97.70;;;14.21;62.37;96932.28;4967970;28;124276;-80
2023/10/26 01:06:51;;;;;;;1.10;0.90;;;14.00;97.70;;;14.21;62.50;96932.28;4970887;28;121813;-79
2023/10/26 01:09:19;;;;;;;1.97;1.10;;;14.00;97.70;;;14.23;62.43;96940.22;4968338;28;114270;-79
2023/10/26 01:11:46;;;;;;;2.10;1.00;;;14.00;97.70;;;14.21;62.48;96934.22;4963955;28;114038;-79
2023/10/26 01:14:14;;;;;;;2.10;0.90;;;14.00;97.70;;;14.21;62.53;96939.78;4957804;28;123924;-79
2023/10/26 01:16:44;;;;;;;1.57;1.03;;;14.80;98.00;;;14.22;62.41;96946.97;4967821;28;123631;-79
2023/10/26 01:19:13;;;;;;;1.40;0.93;;;14.00;97.60;;;14.24;62.40;96947.34;4970040;28;114004;-80
2023/10/26 01:21:53;;;;;;;2.47;1.00;;;14.10;97.70;;;14.26;62.37;96942.22;4963733;28;114228;-80
2023/10/26 01:24:22;;;;;;;1.43;0.90;;;14.00;97.60;;;14.27;62.38;96944.63;4963500;28;123673;-80
2023/10/26 01:26:49;;;;;;;1.53;1.00;;;14.00;97.60;;;14.28;62.28;96950.97;4986740;28;124124;-79
2023/10/26 01:29:17;;;;;;;2.63;1.57;;;14.00;97.60;;;14.29;62.38;96947.00;4968419;28;114231;-78
2023/10/26 01:31:46;;;;;;;1.70;1.00;;;14.80;98.00;;;14.30;62.26;96948.63;4969328;28;113741;-85
2023/10/26 01:34:13;;;;;;;1.57;1.17;;;14.00;97.60;;;14.30;62.25;96959.72;4971109;28;124290;-86
2023/10/26 01:36:39;;;;;;;2.13;1.00;;;14.00;97.60;;;14.30;62.27;96948.63;4969514;28;121535;-84
2023/10/26 01:39:09;;;;;;;6.80;1.10;;;14.10;97.60;;;14.30;61.97;96943.06;4965200;28;115309;-84
2023/10/26 01:41:35;;;;;;;1.60;0.90;;;14.00;97.60;;;14.30;61.90;96943.06;4956805;28;114527;-83
2023/10/26 01:44:02;;;;;;;1.40;1.03;;;14.00;97.50;;;14.29;62.00;96942.28;4960288;28;123426;-85
2023/10/26 01:46:30;;;;;;;1.30;1.10;;;14.00;97.50;;;14.29;61.85;96947.00;4971979;28;121772;-79
2023/10/26 01:49:01;;;;;;;2.10;1.00;;;14.00;97.40;;;14.28;61.61;96945.41;4966141;28;114391;-79
2023/10/26 01:51:27;;;;;;;3.30;1.07;;;14.00;97.40;;;14.26;61.84;96942.22;4953797;28;114026;-83
2023/10/26 01:53:54;;;;;;;1.37;1.00;;;14.00;97.30;;;14.25;61.53;96943.41;4954370;28;122829;-81
2023/10/26 01:56:20;;;;;;;4.70;1.10;;;14.00;97.30;;;14.24;61.57;96936.25;4956705;28;123720;-79
2023/10/26 01:58:50;;;;;;;1.90;0.97;;;14.00;97.30;;;14.22;61.67;96941.41;4968426;28;113269;-79
2023/10/26 02:01:19;;;;;;;4.33;0.97;;;14.00;97.30;;;14.20;61.79;96939.00;4956074;28;114039;-80
2023/10/26 02:03:46;;;;;;;1.87;1.03;;;14.00;97.30;;;14.20;61.77;96949.31;4951216;28;123079;-79
2023/10/26 02:06:14;;;;;;;2.50;1.10;;;13.90;97.30;;;14.15;61.63;96940.13;4967182;28;123962;-79
2023/10/26 02:08:41;;;;;;;1.00;0.80;;;13.90;97.30;;;14.11;61.77;96944.88;4971642;28;114804;-78
2023/10/26 02:11:07;;;;;;;2.20;0.90;;;13.90;97.20;;;14.04;61.85;96947.56;4968141;28;113960;-80
2023/10/26 02:13:35;;;;;;;1.73;1.00;;;14.70;97.60;;;14.01;61.71;96948.31;4982195;28;123960;-79
2023/10/26 02:16:02;;;;;;;1.50;1.07;;;13.80;97.20;;;13.96;61.95;96956.19;4966926;28;124657;-79
2023/10/26 02:18:30;;;;;;;2.13;1.07;;;13.80;97.30;;;13.91;62.13;96949.00;4973627;28;113002;-79
2023/10/26 02:21:00;;;;;;;2.00;1.07;;;15.10;97.90;;;13.85;62.09;96958.88;4999011;28;114006;-78
2023/10/26 02:23:27;;;;;;;1.73;1.00;;;13.80;97.30;;;13.78;62.29;96956.00;4968122;28;124254;-79
2023/10/26 02:25:57;;;;;;;1.37;0.93;;;14.10;97.40;;;13.71;62.44;96956.72;4969134;28;121919;-80
2023/10/26 02:28:24;;;;;;;1.00;0.80;;;13.60;97.30;;;13.67;62.51;96953.91;4965851;28;115212;-79
2023/10/26 02:30:51;;;;;;;2.97;0.80;;;13.60;97.30;;;13.65;62.38;96947.94;4967580;28;114721;-80
2023/10/26 02:33:17;;;;;;;1.60;0.90;;;13.50;97.30;;;13.62;62.52;96947.88;4988210;28;122989;-78
2023/10/26 02:35:44;;;;;;;2.47;1.10;;;13.50;97.30;;;13.56;62.47;96947.41;4972456;28;124183;-79
2023/10/26 02:38:14;;;;;;;3.07;0.90;;;13.50;97.30;;;13.51;62.53;96947.75;4967471;28;114937;-79
2023/10/26 02:40:44;;;;;;;2.50;0.93;;;13.40;97.30;;;13.46;62.51;96950.88;4971950;28;113307;-79
2023/10/26 02:43:10;;;;;;;1.40;0.90;;;13.90;97.50;;;13.39;62.92;96946.03;4970254;28;123382;-79
2023/10/26 02:45:37;;;;;;;2.70;1.00;;;13.30;97.30;;;13.34;63.02;96953.88;4967418;28;123670;-79
2023/10/26 02:48:06;;;;;;;1.10;0.80;;;13.30;97.40;;;13.30;62.93;96962.16;4976720;28;112079;-80
2023/10/26 02:50:36;;;;;;;1.40;0.80;;;13.20;97.40;;;13.28;63.24;96949.84;4978237;28;112591;-83
2023/10/26 02:53:08;;;;;;;6.47;1.10;;;13.20;97.50;;;13.24;63.38;96949.75;4961849;28;123736;-81
2023/10/26 02:55:34;;;;;;;5.23;1.37;;;13.20;97.60;;;13.20;63.28;96958.03;4974215;28;124317;-81
2023/10/26 02:58:02;;;;;;;3.97;1.20;;;13.60;97.80;;;13.17;63.51;96956.00;4976677;28;114871;-81
2023/10/26 03:00:28;;;;;;;1.20;0.80;;;13.10;97.70;;;13.13;63.45;96955.13;4973991;28;113162;-79
2023/10/26 03:02:55;;;;;;;1.50;1.10;;;13.00;97.70;;;13.10;63.49;96950.34;4975748;28;124079;-80
2023/10/26 03:05:22;;;;;;;2.73;1.00;;;14.80;98.80;;;13.08;63.53;96952.69;4974257;28;123097;-81
2023/10/26 03:07:52;;;;;;;1.53;0.97;;;13.30;97.90;;;13.05;63.47;96953.44;4968890;28;114434;-79
2023/10/26 03:10:22;;;;;;;2.70;0.90;;;14.00;98.20;;;13.02;63.52;96949.44;4965402;28;114071;-80
2023/10/26 03:12:50;;;;;;;1.70;1.20;;;12.90;97.80;;;13.01;63.64;96941.50;4979974;28;123222;-79
2023/10/26 03:15:18;;;;;;;2.50;1.30;;;12.90;97.80;;;13.00;63.80;96948.22;4957804;28;123945;-78
2023/10/26 03:17:44;;;;;;;2.77;1.00;;;12.80;97.80;;;12.99;63.63;96949.41;4970481;28;115185;-79
2023/10/26 03:20:11;;;;;;;1.50;0.93;;;12.90;97.90;;;12.99;63.70;96957.72;4971655;28;114593;-78
2023/10/26 03:22:38;;;;;;;1.83;1.27;;;12.80;97.80;;;12.97;63.96;96951.75;4989390;28;124106;-79
2023/10/26 03:25:13;;;;;;;1.57;1.20;;;12.80;97.90;;;12.97;63.92;96947.00;4971516;28;123981;-79
2023/10/26 03:27:40;;;;;;;1.30;0.90;;;12.80;97.90;;;12.99;63.55;96949.41;4972004;28;113575;-79
2023/10/26 03:30:08;;;;;;;1.40;1.00;;;12.80;97.90;;;12.98;63.62;96948.59;4990316;28;113080;-79
2023/10/26 03:32:35;;;;;;;1.43;1.00;;;12.80;97.90;;;12.98;63.70;96942.25;4973622;28;124079;-79
2023/10/26 03:35:01;;;;;;;1.93;1.00;;;12.90;97.90;;;12.98;63.80;96950.59;4974113;28;122664;-78
2023/10/26 03:37:28;;;;;;;1.10;1.00;;;12.80;97.80;;;12.98;63.82;96945.03;4966655;28;113823;-79
2023/10/26 03:39:54;;;;;;;1.20;0.90;;;12.80;97.80;;;12.98;63.58;96939.50;4962202;28;114227;-78
2023/10/26 03:42:21;;;;;;;1.83;1.00;;;12.80;97.80;;;12.97;63.62;96944.22;4973480;28;124060;-79
2023/10/26 03:44:47;;;;;;;1.43;1.00;;;13.50;98.20;;;12.98;63.74;96947.81;4968268;28;123594;-79
2023/10/26 03:47:14;;;;;;;1.57;1.00;;;12.80;97.90;;;12.97;63.62;96946.19;4968666;28;114520;-79
2023/10/26 03:49:41;;;;;;;2.63;1.00;;;12.80;97.90;;;12.98;63.82;96950.59;4970903;28;114017;-79
2023/10/26 03:52:07;;;;;;;1.20;0.87;;;12.80;97.90;;;12.99;63.83;96952.16;4961924;28;124081;-78
2023/10/26 03:54:34;;;;;;;2.20;0.90;;;12.80;97.90;;;12.99;63.84;96949.41;4964887;28;123906;-78
2023/10/26 03:57:03;;;;;;;1.30;0.97;;;12.80;97.90;;;13.00;63.87;96948.22;4972247;28;112859;-79
2023/10/26 03:59:30;;;;;;;2.03;1.30;;;12.80;98.00;;;13.01;63.79;96949.84;4970496;28;114016;-79
2023/10/26 04:01:56;;;;;;;1.10;1.00;;;12.90;98.00;;;13.01;63.79;96941.50;4969773;28;123861;-79
2023/10/26 04:04:24;;;;;;;2.50;1.47;;;12.80;98.00;;;13.02;63.80;96943.09;4979904;28;122666;-79
2023/10/26 04:06:50;;;;;;;2.40;1.00;;;12.80;98.00;;;13.02;63.75;96948.66;4970064;28;115100;-78
2023/10/26 04:09:17;;;;;;;1.93;1.00;;;12.80;98.00;;;13.02;63.87;96943.91;4971205;28;115010;-79
2023/10/26 04:11:45;;;;;;;1.93;1.10;;;12.80;98.00;;;13.02;63.79;96938.34;4955426;28;123160;-79
2023/10/26 04:14:11;;;;;;;1.90;1.00;;;13.80;98.50;;;13.03;63.46;96939.19;4983035;28;122739;-79
2023/10/26 04:16:38;;;;;;;2.00;1.50;;;12.80;98.00;;;13.02;63.71;96932.81;4959740;28;114360;-78
2023/10/26 04:19:04;;;;;;;2.00;1.17;;;12.90;98.10;;;13.01;63.75;96935.97;4970717;28;113930;-79
2023/10/26 04:21:31;;;;;;;2.73;1.30;;;12.80;98.10;;;12.99;63.99;96928.00;4964516;28;124637;-80
2023/10/26 04:24:00;;;;;;;1.37;1.10;;;12.90;98.10;;;12.99;63.72;96932.75;4969433;28;124461;-78
2023/10/26 04:26:26;;;;;;;2.60;1.37;;;12.90;98.10;;;12.96;64.01;96928.75;4969595;28;114325;-79
2023/10/26 04:28:53;;;;;;;2.63;1.40;;;12.80;98.10;;;12.94;63.71;96931.09;4968588;28;113861;-79
2023/10/26 04:31:20;;;;;;;3.03;1.37;;;13.10;98.20;;;12.91;63.73;96923.53;4968720;28;124363;-79
2023/10/26 04:33:48;;;;;;;2.10;1.37;;;12.70;98.00;;;12.89;63.81;96928.66;4968422;28;123778;-79
2023/10/26 04:36:23;;;;;;;2.10;1.20;;;12.70;98.00;;;12.86;64.13;96925.84;4971892;28;113530;-80
2023/10/26 04:38:50;;;;;;;1.53;1.20;;;12.70;98.00;;;12.82;63.97;96928.56;4970363;28;113886;-78
2023/10/26 04:41:16;;;;;;;5.40;1.30;;;12.70;98.00;;;12.77;63.96;96938.00;4969408;28;123752;-78
2023/10/26 04:43:43;;;;;;;2.07;1.10;;;12.70;98.10;;;12.74;64.15;96938.75;4967613;28;123778;-78
2023/10/26 04:46:10;;;;;;;1.13;1.00;;;12.60;98.00;;;12.72;64.09;96930.00;4967289;28;114404;-79
2023/10/26 04:48:39;;;;;;;1.20;0.90;;;12.50;98.00;;;12.69;64.03;96935.50;4968972;28;114170;-78
2023/10/26 04:51:08;;;;;;;1.40;1.10;;;12.50;98.00;;;12.67;64.24;96921.19;4972369;28;126966;-79
2023/10/26 04:53:35;;;;;;;4.97;1.07;;;12.50;98.00;;;12.65;64.42;96923.53;4956434;28;124011;-78
2023/10/26 04:56:02;;;;;;;2.20;1.30;;;12.50;98.10;;;12.65;64.29;96918.78;4972970;28;114576;-78
2023/10/26 04:58:32;;;;;;;2.10;0.90;;;12.50;98.10;;;12.65;64.16;96916.03;4969385;28;115031;-79
2023/10/26 05:00:59;;;;;;;1.30;1.00;;;12.50;98.10;;;12.66;64.07;96908.53;4971161;28;123933;-79
2023/10/26 05:03:26;;;;;;;6.07;1.20;;;12.50;98.10;;;12.65;64.16;96907.72;4971341;28;123804;-78
2023/10/26 05:05:52;;;;;;;1.90;1.20;;;12.60;98.10;;;12.66;64.04;96903.00;4969751;28;114308;-80
2023/10/26 05:08:19;;;;;;;2.80;1.30;;;12.50;98.00;;;12.66;64.05;96909.31;4970760;28;113134;-78
2023/10/26 05:10:46;;;;;;;1.10;0.93;;;12.50;98.00;;;12.67;63.87;96901.81;4987526;28;123404;-79
2023/10/26 05:13:13;;;;;;;1.30;1.00;;;12.50;98.00;;;12.66;63.81;96909.31;4959058;28;124021;-78
2023/10/26 05:15:40;;;;;;;1.77;1.10;;;12.20;97.90;;;12.68;63.90;96907.00;4972045;28;114269;-80
2023/10/26 05:18:08;;;;;;;1.13;1.00;;;13.00;98.20;;;12.69;63.78;96907.78;4970627;28;113923;-79
2023/10/26 05:20:35;;;;;;;1.27;1.17;;;12.50;98.10;;;12.69;63.97;96903.03;4985003;28;123771;-79
2023/10/26 05:23:02;;;;;;;2.23;1.10;;;12.50;98.00;;;12.71;64.04;96905.44;4964532;28;123828;-80
2023/10/26 05:25:30;;;;;;;1.87;1.30;;;12.50;98.00;;;12.72;63.85;96902.28;4963603;28;114237;-79
2023/10/26 05:28:01;;;;;;;2.90;1.10;;;12.50;98.00;;;12.72;63.75;96907.03;4967400;28;114019;-80
2023/10/26 05:30:29;;;;;;;2.63;1.20;;;12.50;98.00;;;12.71;63.68;96900.69;4956353;28;122835;-80
2023/10/26 05:32:57;;;;;;;2.07;1.00;;;12.50;97.90;;;12.70;63.87;96898.28;4950948;28;124004;-79
2023/10/26 05:35:26;;;;;;;2.60;1.20;;;12.50;98.00;;;12.70;63.89;96899.09;4956710;28;113441;-80
2023/10/26 05:37:55;;;;;;;1.40;1.00;;;12.50;97.90;;;12.71;63.80;96895.16;4954078;28;114021;-79
2023/10/26 05:40:37;;;;;;;1.50;1.07;;;12.70;98.00;;;12.73;63.60;96895.56;4975793;28;124007;-85
2023/10/26 05:43:06;;;;;;;2.27;1.20;;;14.50;98.80;;;12.74;63.92;96888.06;4966300;28;125282;-79
2023/10/26 05:45:39;;;;;;;2.20;1.37;;;12.50;97.90;;;12.73;63.81;96887.25;4965125;28;115344;-79
2023/10/26 05:48:08;;;;;;;2.17;1.10;;;14.60;98.90;;;12.73;63.76;96884.47;4949120;28;115177;-79
2023/10/26 05:50:35;;;;;;;6.47;1.00;;;14.10;98.60;;;12.74;63.84;96880.56;4953904;28;124549;-80
2023/10/26 05:53:01;;;;;;;1.87;1.00;;;13.60;98.40;;;12.76;63.72;96877.38;4950239;28;123262;-81
2023/10/26 05:55:28;;;;;;;1.83;1.03;;;13.70;98.50;;;12.79;63.72;96880.22;4956166;28;114239;-79
2023/10/26 05:57:54;;;;;;;5.03;1.87;;;12.50;98.00;;;12.82;63.87;96873.13;4968577;28;113987;-84
2023/10/26 06:00:21;;;;;;;1.57;1.00;;;12.50;98.00;;;12.84;63.80;96876.31;4971361;28;124169;-81
2023/10/26 06:02:51;;;;;;;2.30;1.30;;;12.60;98.10;;;12.88;63.74;96868.06;4953735;28;122818;-82
2023/10/26 06:05:17;;;;;;;4.60;1.43;;;12.80;98.20;;;12.93;63.85;96867.75;4949356;28;114050;-80
2023/10/26 06:07:44;;;;;;;7.10;1.33;;;12.90;98.20;;;12.95;63.90;96870.91;4956184;28;113122;-81
2023/10/26 06:10:11;;;;;;;2.13;1.30;;;12.70;98.20;;;12.97;63.68;96874.13;4959495;28;124339;-85
2023/10/26 06:12:38;;;;;;;1.97;1.40;;;12.70;98.10;;;12.98;63.78;96875.75;4957713;28;121550;-83
2023/10/26 06:15:05;;;;;;;1.57;1.30;;;12.70;98.20;;;13.01;63.93;96869.44;4980182;28;113174;-83
2023/10/26 06:17:32;;;;;;;1.80;1.20;;;12.70;98.20;;;13.02;63.90;96871.81;4956500;28;113085;-80
2023/10/26 06:20:01;;;;;;;1.77;1.30;;;12.90;98.30;;;13.04;63.92;96875.03;4966268;28;123711;-81
2023/10/26 06:22:28;;;;;;;2.83;1.50;;;14.90;99.20;;;13.07;64.07;96867.91;4951535;28;124269;-81
2023/10/26 06:24:56;;;;;;;2.37;1.40;;;12.80;98.30;;;13.10;63.96;96877.47;4951679;28;114475;-81
2023/10/26 06:27:25;;;;;;;4.97;1.30;;;14.70;99.20;;;13.14;64.10;96887.44;4951857;28;113999;-83
2023/10/26 06:29:55;;;;;;;2.60;1.30;;;12.90;98.40;;;13.16;64.21;96887.03;4951383;28;123999;-83
2023/10/26 06:32:21;;;;;;;2.43;1.50;;;12.60;98.40;;;13.18;64.32;96885.50;4968186;28;122931;-85
2023/10/26 06:34:48;;;;;;;1.40;1.10;;;13.50;98.80;;;13.18;64.39;96876.38;4956181;28;115516;-83
2023/10/26 06:37:14;;;;;;;1.80;1.20;;;13.40;98.80;;;13.20;64.42;96882.34;4951054;28;115262;-88
2023/10/26 06:39:41;;;;;;;2.23;1.30;;;13.70;99.00;;;13.21;64.63;96873.63;4942045;28;123563;-84
2023/10/26 06:42:07;;;;;;;2.50;1.20;;;12.90;98.70;;;13.22;64.67;96880.81;4957420;28;123858;-84
2023/10/26 06:44:34;;;;;;;2.60;1.40;;;12.90;98.70;;;13.25;64.62;96873.72;4952557;28;113357;-87
2023/10/26 06:47:00;;;;;;;1.70;1.40;;;13.60;99.10;;;13.28;64.79;96877.72;4951099;28;113938;-87
2023/10/26 06:49:27;;;;;;;3.13;1.10;;;13.00;98.90;;;13.29;64.76;96882.09;4954016;28;124548;-88
2023/10/26 06:51:56;;;;;;;2.50;1.30;;;13.10;98.90;;;13.32;64.87;96889.66;4956873;28;122865;-86
2023/10/26 06:54:23;;;;;;;1.97;1.10;;;14.30;99.50;;;13.35;64.72;96877.78;4966959;28;114015;-83
2023/10/26 06:56:49;;;;;;;1.40;1.10;;;13.00;98.90;;;13.37;64.81;96878.22;4970756;28;114017;-85
2023/10/26 06:59:16;;;;;;;2.63;1.40;;;13.10;99.00;;;13.39;65.03;96875.88;4983637;28;123434;-87
2023/10/26 07:01:47;;;;;;;3.77;1.30;;;13.10;99.00;;;13.40;64.84;96881.03;4968968;28;124018;-86
2023/10/26 07:04:14;;;;;;;1.93;1.27;;;14.90;99.80;;;13.43;65.04;96873.94;4972339;28;113937;-84
2023/10/26 07:06:40;;;;;;;3.80;1.50;;;13.10;99.00;;;13.45;64.91;96882.69;4980163;28;113930;-85
2023/10/26 07:09:06;;;;;;;2.30;1.40;;;13.20;99.10;;;13.47;65.11;96880.34;4969543;28;124134;-86
2023/10/26 07:11:33;;;;;;;1.10;0.83;;;13.20;99.10;;;13.51;65.03;96875.59;4950146;28;123011;-86
2023/10/26 07:14:00;;;;;;;1.77;1.20;;;13.20;99.10;;;13.52;65.09;96887.53;4987448;28;114135;-86
2023/10/26 07:16:26;;;;;;;2.10;1.13;;;13.20;99.10;;;13.54;65.16;96874.88;4961444;28;113945;-87
2023/10/26 07:18:53;;;;;;;5.33;1.23;;;13.20;99.20;;;13.56;65.08;96872.50;4961022;28;123945;-87
2023/10/26 07:21:19;;;;;;;3.13;1.60;;;13.30;99.20;;;13.58;65.12;96874.91;4950383;28;124075;-85
2023/10/26 07:23:46;;;;;;;1.97;1.33;;;13.30;99.20;;;13.62;65.13;96873.78;4956178;28;115297;-87
2023/10/26 07:26:19;;;;;;;2.03;1.20;;;13.30;99.20;;;13.66;65.00;96871.81;4960424;28;114932;-87
2023/10/26 07:28:46;;;;;;;2.27;1.60;;;13.40;99.20;;;13.69;65.12;96879.38;4983940;28;123531;-87
2023/10/26 07:31:20;;;;;;;3.03;1.60;;;13.40;99.20;;;13.72;64.84;96880.59;4961862;28;123571;-85
2023/10/26 07:33:47;;;;;;;5.33;1.50;;;13.40;99.20;;;13.74;65.07;96883.00;4955606;28;114338;-87
2023/10/26 07:36:16;;;;;;;2.03;1.30;;;13.40;99.20;;;13.75;64.95;96877.06;4958733;28;113573;-87
2023/10/26 07:38:46;;;;;;;2.10;1.30;;;13.40;99.20;;;13.77;64.95;96876.69;4955550;28;123996;-88
2023/10/26 07:41:12;;;;;;;2.67;1.43;;;13.50;99.20;;;13.77;65.03;96877.47;4949414;28;124292;-86
2023/10/26 07:43:38;;;;;;;1.43;1.10;;;13.60;99.30;;;13.79;65.24;96871.56;4950203;28;113574;-87
2023/10/26 07:46:05;;;;;;;2.00;1.33;;;13.50;99.20;;;13.83;65.15;96880.72;4949808;28;114188;-87
2023/10/26 07:48:32;;;;;;;1.77;1.30;;;13.50;99.20;;;13.85;65.14;96873.59;4957750;28;124096;-87
2023/10/26 07:50:58;;;;;;;2.27;1.20;;;13.50;99.30;;;13.88;65.05;96867.28;4954378;28;124350;-86
2023/10/26 07:53:30;;;;;;;3.83;1.53;;;13.60;99.30;;;13.93;65.08;96866.13;4957204;28;114281;-83
2023/10/26 07:55:57;;;;;;;2.70;1.57;;;13.60;99.30;;;13.95;65.16;96863.78;4968507;28;113939;-85
2023/10/26 07:58:27;;;;;;;4.83;1.87;;;13.60;99.30;;;13.98;64.97;96859.44;4953956;28;124042;-87
2023/10/26 08:00:54;;;;;;;2.87;1.27;;;13.80;99.40;;;14.00;65.02;96869.00;4981914;28;126810;-87
2023/10/26 08:03:20;;;;;;;1.87;1.53;;;13.70;99.40;;;14.04;65.09;96860.69;4969174;28;114525;-89
2023/10/26 08:05:59;;;;;;;1.93;1.10;;;13.70;99.40;;;14.05;64.74;96860.31;4971823;28;113085;-86
2023/10/26 08:08:25;;;;;;;6.13;2.33;;;13.70;99.40;;;14.07;65.06;96857.94;4970161;28;124244;-87
2023/10/26 08:10:52;;;;;;;4.00;2.30;;;13.70;99.40;;;14.08;65.05;96851.22;4969231;28;123936;-86
2023/10/26 08:13:20;;;;;;;3.53;1.40;;;13.80;99.50;;;14.11;65.04;96853.22;4966882;28;115539;-87
2023/10/26 08:15:50;;;;;;;2.13;1.40;;;13.80;99.40;;;14.12;65.02;96838.16;4968948;28;115613;-87
2023/10/26 08:18:17;;;;;;;1.73;1.20;;;13.60;99.30;;;14.14;65.11;96835.78;4968580;28;123986;-87
2023/10/26 08:20:51;;;;;;;3.90;1.90;;;13.80;99.50;;;14.17;65.45;96837.00;4968644;28;123757;-87
2023/10/26 08:23:19;;;;;;;3.13;1.50;;;13.80;99.50;;;14.21;65.06;96839.78;4970291;28;114478;-88
2023/10/26 08:25:45;;;;;;;2.83;1.53;;;13.90;99.50;;;14.23;64.99;96848.56;4971644;28;113897;-86
2023/10/26 08:28:12;;;;;;;1.60;1.40;;;13.90;99.60;;;14.26;65.22;96847.78;4953784;28;123349;-86
2023/10/26 08:30:38;;;;;;;2.57;1.47;;;14.10;99.70;;;14.27;65.17;96852.16;4968984;28;123704;-86
2023/10/26 08:33:05;;;;;;;4.33;1.37;;;13.90;99.60;;;14.30;65.33;96845.84;4967340;28;114350;-87
2023/10/26 08:35:34;;;;;;;1.80;1.37;;;14.00;99.60;;;14.31;65.25;96845.44;4967008;28;114814;-87
2023/10/26 08:38:00;;;;;;;3.20;1.13;;;15.80;99.90;;;14.34;65.23;96846.66;4966806;28;124245;-87
2023/10/26 08:40:27;;;;;;;2.00;1.40;;;14.00;99.60;;;14.36;65.24;96842.31;4985919;28;122742;-86
2023/10/26 08:42:55;;;;;;;2.30;1.57;;;14.00;99.60;;;14.39;65.19;96843.50;4966676;28;114418;-85
2023/10/26 08:45:28;;;;;;;1.53;1.20;;;14.50;99.80;;;14.41;65.17;96849.50;4959553;28;113877;-87
2023/10/26 08:47:56;;;;;;;2.90;1.30;;;14.10;99.60;;;14.44;65.17;96859.81;4967741;28;124174;-85
2023/10/26 08:50:23;;;;;;;2.20;1.30;;;14.10;99.60;;;14.46;65.35;96863.03;4966507;28;124124;-88
2023/10/26 08:52:53;;;;;;;2.00;1.10;;;14.10;99.60;;;14.48;65.07;96882.06;4954198;28;115308;-85
2023/10/26 08:55:20;;;;;;;1.90;1.23;;;14.20;99.70;;;14.48;65.24;96877.34;4959779;28;114432;-85
2023/10/26 08:57:49;;;;;;;1.60;1.10;;;14.20;99.70;;;14.49;65.31;96873.38;4970483;28;124779;-85
2023/10/26 09:00:16;;;;;;;1.97;1.17;;;14.20;99.70;;;14.52;65.30;96871.78;4967540;28;124152;-84
2023/10/26 09:02:43;;;;;;;2.60;1.20;;;14.20;99.70;;;14.54;65.29;96884.16;4962459;28;115786;-87
2023/10/26 09:05:11;;;;;;;1.83;1.17;;;14.20;99.70;;;14.55;65.31;96871.84;4963545;28;114928;-86
2023/10/26 09:07:38;;;;;;;6.53;1.20;;;14.20;99.70;;;14.57;65.32;96860.34;4965066;28;124573;-87
2023/10/26 09:10:05;;;;;;;1.70;1.27;;;14.20;99.70;;;14.61;65.44;96868.72;4956427;28;122842;-85
2023/10/26 09:12:32;;;;;;;1.60;1.20;;;14.30;99.80;;;14.63;65.36;96861.56;4966447;28;113924;-84
2023/10/26 09:15:08;;;;;;;1.10;1.00;;;14.70;99.90;;;14.66;65.28;96866.34;4954317;28;112624;-85
2023/10/26 09:17:37;;;;;;;1.83;1.20;;;14.30;99.80;;;14.68;65.37;96866.78;4950725;28;126150;-83
2023/10/26 09:20:21;;;;;;;3.37;1.30;;;14.30;99.80;;;14.71;65.26;96868.00;4953222;28;124498;-86
2023/10/26 09:22:50;;;;;;;2.67;1.57;;;14.40;99.80;;;14.73;65.57;96860.84;4949369;28;114512;-87
2023/10/26 09:25:17;;;;;;;1.93;1.30;;;14.50;99.90;;;14.74;66.00;96870.00;4951912;28;113340;-88
2023/10/26 09:27:48;;;;;;;1.50;1.30;;;14.40;99.90;;;14.74;65.98;96872.78;4959878;28;122939;-86
2023/10/26 09:30:31;;;;;;;8.53;2.33;;;14.40;99.90;;;14.73;65.86;96868.41;4969867;28;122800;-84
2023/10/26 09:32:59;;;;;;;4.10;1.37;;;14.50;99.90;;;14.74;66.06;96859.66;4965592;28;114056;-85
2023/10/26 09:35:33;;;;;;;3.43;1.63;;;14.50;99.90;;;14.77;66.28;96860.88;4949611;28;114238;-83
2023/10/26 09:38:00;;;;;;;2.63;1.30;;;14.50;99.90;;;14.80;66.43;96866.47;4984012;28;124036;-85
2023/10/26 09:40:27;;;;;;;2.50;1.57;;;15.50;99.90;;;14.81;66.62;96861.69;4953195;28;124267;-86
2023/10/26 09:42:57;;;;;;;3.27;1.60;;;14.50;99.90;;;14.80;66.62;96868.44;4956322;28;114548;-87
2023/10/26 09:45:24;;;;;;;2.17;1.40;;;14.60;99.90;;;14.76;66.86;96870.41;4963463;28;113775;-87
2023/10/26 09:47:50;;;;;;;1.80;1.10;;;14.50;99.90;;;14.74;67.13;96878.31;4963951;28;124075;-83
2023/10/26 09:50:17;;;;;;;2.77;1.40;;;14.50;99.90;;;14.70;67.19;96886.66;4958471;28;123811;-84
2023/10/26 09:52:44;;;;;;;1.63;1.13;;;14.50;99.90;;;14.70;67.30;96905.31;4969442;28;114715;-84
2023/10/26 09:55:13;;;;;;;1.63;1.20;;;14.50;99.90;;;14.73;67.31;96910.09;4969176;28;114979;-87
2023/10/26 09:57:58;;;;;;;1.43;1.10;;;14.50;99.90;;;14.71;67.56;96902.13;4972300;28;123552;-84
2023/10/26 10:00:33;;;;;;;2.93;1.70;;;14.50;99.90;;;14.72;67.89;96867.63;4969550;28;123849;-83
2023/10/26 10:03:14;;;;;;;2.00;1.30;;;14.50;99.90;;;14.73;67.89;96851.72;4998729;28;114863;-83
2023/10/26 10:05:47;;;;;;;1.50;1.27;;;14.50;99.90;;;14.73;67.83;96877.53;4980546;28;114157;-85
2023/10/26 10:08:14;;;;;;;3.47;1.40;;;14.50;99.90;;;14.75;67.90;96863.25;4973012;28;124249;-82
2023/10/26 10:11:15;;;;;;;2.20;1.50;;;14.50;99.90;;;14.69;68.86;96860.03;4969397;28;123990;-83
2023/10/26 10:13:42;;;;;;;3.23;1.80;;;14.50;99.90;;;14.68;68.75;96868.75;4969779;28;113493;-80
2023/10/26 10:16:33;;;;;;;6.23;2.30;;;14.40;99.90;;;14.66;68.98;96860.81;4966720;28;114501;-85